createdAt,value
2023-10-20T00:00:33.000Z,12.277777777777779
2023-10-20T00:01:03.000Z,12.277777777777779
2023-10-20T00:01:28.000Z,12.277777777777779
2023-10-20T00:01:53.000Z,12.277777777777779
2023-10-20T00:02:23.000Z,12.277777777777779
2023-10-20T00:02:49.000Z,12.277777777777779
2023-10-20T00:03:15.000Z,12.277777777777779
2023-10-20T00:03:43.000Z,12.277777777777779
2023-10-20T00:04:13.000Z,12.277777777777779
2023-10-20T00:04:39.000Z,12.277777777777779
2023-10-20T00:05:03.000Z,12.277777777777779
2023-10-20T00:05:28.000Z,12.277777777777779
2023-10-20T00:05:58.000Z,12.277777777777779
2023-10-20T00:06:28.000Z,12.277777777777779
2023-10-20T00:06:55.000Z,12.277777777777779
2023-10-20T00:07:18.000Z,12.277777777777779
2023-10-20T00:07:48.000Z,12.277777777777779
2023-10-20T00:08:23.000Z,12.277777777777779
2023-10-20T00:08:53.000Z,12.277777777777779
2023-10-20T00:09:23.000Z,12.277777777777779
2023-10-20T00:09:43.000Z,12.277777777777779
2023-10-20T00:09:59.000Z,12.277777777777779
2023-10-20T00:10:29.000Z,12.277777777777779
2023-10-20T00:10:55.000Z,12.277777777777779
2023-10-20T00:11:19.000Z,12.277777777777779
2023-10-20T00:11:48.000Z,12.277777777777779
2023-10-20T00:12:23.000Z,12.277777777777779
2023-10-20T00:12:53.000Z,12.5
2023-10-20T00:13:28.000Z,12.5
2023-10-20T00:13:58.000Z,12.5
2023-10-20T00:14:28.000Z,12.5
2023-10-20T00:14:54.000Z,12.5
2023-10-20T00:15:18.000Z,12.5
2023-10-20T00:15:49.000Z,12.5
2023-10-20T00:16:23.000Z,12.5
2023-10-20T00:17:03.000Z,12.5
2023-10-20T00:17:28.000Z,12.5
2023-10-20T00:17:53.000Z,12.5
2023-10-20T00:18:23.000Z,12.5
2023-10-20T00:18:53.000Z,12.5
2023-10-20T00:19:19.000Z,12.5
2023-10-20T00:19:47.000Z,12.5
2023-10-20T00:20:03.000Z,12.5
2023-10-20T00:20:23.000Z,12.5
2023-10-20T00:20:53.000Z,12.5
2023-10-20T00:21:24.000Z,12.5
2023-10-20T00:21:58.000Z,12.5
2023-10-20T00:22:28.000Z,12.5
2023-10-20T00:22:53.000Z,12.5
2023-10-20T00:23:18.000Z,12.5
2023-10-20T00:23:48.000Z,12.5
2023-10-20T00:24:23.000Z,12.5
2023-10-20T00:24:53.000Z,12.5
2023-10-20T00:25:33.000Z,12.5
2023-10-20T00:25:59.000Z,12.5
2023-10-20T00:26:28.000Z,12.5
2023-10-20T00:26:53.000Z,12.5
2023-10-20T00:27:18.000Z,12.5
2023-10-20T00:27:48.000Z,12.5
2023-10-20T00:28:23.000Z,12.5
2023-10-20T00:28:53.000Z,12.5
2023-10-20T00:29:23.000Z,12.5
2023-10-20T00:29:43.000Z,12.5
2023-10-20T00:30:13.000Z,12.5
2023-10-20T00:30:43.000Z,12.5
2023-10-20T00:31:03.000Z,12.5
2023-10-20T00:31:33.000Z,12.5
2023-10-20T00:31:55.000Z,12.5
2023-10-20T00:32:23.000Z,12.5
2023-10-20T00:32:53.000Z,12.5
2023-10-20T00:33:23.000Z,12.5
2023-10-20T00:33:43.000Z,12.5
2023-10-20T00:34:13.000Z,12.5
2023-10-20T00:34:43.000Z,12.5
2023-10-20T00:35:18.000Z,12.5
2023-10-20T00:35:48.000Z,12.5
2023-10-20T00:36:23.000Z,12.5
2023-10-20T00:36:53.000Z,12.5
2023-10-20T00:37:23.000Z,12.5
2023-10-20T00:37:58.000Z,12.5
2023-10-20T00:38:28.000Z,12.5
2023-10-20T00:38:53.000Z,12.5
2023-10-20T00:39:18.000Z,12.5
2023-10-20T00:39:48.000Z,12.5
2023-10-20T00:40:23.000Z,12.5
2023-10-20T00:40:53.000Z,12.5
2023-10-20T00:41:23.000Z,12.5
2023-10-20T00:41:43.000Z,12.5
2023-10-20T00:42:13.000Z,12.5
2023-10-20T00:42:43.000Z,12.5
2023-10-20T00:43:04.000Z,12.5
2023-10-20T00:43:33.000Z,12.5
2023-10-20T00:43:55.000Z,12.5
2023-10-20T00:44:23.000Z,12.5
2023-10-20T00:44:53.000Z,12.5
2023-10-20T00:45:23.000Z,12.5
2023-10-20T00:45:43.000Z,12.5
2023-10-20T00:46:13.000Z,12.5
2023-10-20T00:46:53.000Z,12.5
2023-10-20T00:47:20.000Z,12.5
2023-10-20T00:47:47.000Z,12.5
2023-10-20T00:48:13.000Z,12.5
2023-10-20T00:48:38.000Z,12.5
2023-10-20T00:49:07.000Z,12.5
2023-10-20T00:49:23.000Z,12.5
2023-10-20T00:49:43.000Z,12.5
2023-10-20T00:50:13.000Z,12.5
2023-10-20T00:50:43.000Z,12.5
2023-10-20T00:51:03.000Z,12.5
2023-10-20T00:51:33.000Z,12.5
2023-10-20T00:51:55.000Z,12.5
2023-10-20T00:52:23.000Z,12.5
2023-10-20T00:52:53.000Z,12.5
2023-10-20T00:53:24.000Z,12.5
2023-10-20T00:53:53.000Z,12.5
2023-10-20T00:54:23.000Z,12.5
2023-10-20T00:54:53.000Z,12.5
2023-10-20T00:55:19.000Z,12.5
2023-10-20T00:55:47.000Z,12.5
2023-10-20T00:56:13.000Z,12.5
2023-10-20T00:56:39.000Z,12.5
2023-10-20T00:57:03.000Z,12.5
2023-10-20T00:57:26.000Z,12.5
2023-10-20T00:57:58.000Z,12.5
2023-10-20T00:58:28.000Z,12.5
2023-10-20T00:58:53.000Z,12.5
2023-10-20T00:59:18.000Z,12.5
2023-10-20T00:59:48.000Z,12.5
2023-10-20T01:00:24.000Z,12.5
2023-10-20T01:00:53.000Z,12.5
2023-10-20T01:01:23.000Z,12.5
2023-10-20T01:01:43.000Z,12.5
2023-10-20T01:02:13.000Z,12.5
2023-10-20T01:02:53.000Z,12.5
2023-10-20T01:03:19.000Z,12.5
2023-10-20T01:03:48.000Z,12.5
2023-10-20T01:04:23.000Z,12.5
2023-10-20T01:04:53.000Z,12.5
2023-10-20T01:05:23.000Z,12.5
2023-10-20T01:05:58.000Z,12.5
2023-10-20T01:06:28.000Z,12.611111111111112
2023-10-20T01:07:01.000Z,12.611111111111112
2023-10-20T01:07:33.000Z,12.611111111111112
2023-10-20T01:07:55.000Z,12.611111111111112
2023-10-20T01:08:23.000Z,12.611111111111112
2023-10-20T01:08:51.000Z,12.611111111111112
2023-10-20T01:09:14.000Z,12.611111111111112
2023-10-20T01:09:39.000Z,12.722222222222221
2023-10-20T01:10:08.000Z,12.611111111111112
2023-10-20T01:10:31.000Z,12.722222222222221
2023-10-20T01:10:58.000Z,12.722222222222221
2023-10-20T01:11:18.000Z,12.722222222222221
2023-10-20T01:11:48.000Z,12.722222222222221
2023-10-20T01:12:23.000Z,12.722222222222221
2023-10-20T01:12:53.000Z,12.722222222222221
2023-10-20T01:13:23.000Z,12.722222222222221
2023-10-20T01:13:43.000Z,12.722222222222221
2023-10-20T01:14:13.000Z,12.722222222222221
2023-10-20T01:14:43.000Z,12.722222222222221
2023-10-20T01:15:01.000Z,12.722222222222221
2023-10-20T01:15:33.000Z,12.777777777777779
2023-10-20T01:15:55.000Z,12.777777777777779
2023-10-20T01:16:23.000Z,12.777777777777779
2023-10-20T01:16:53.000Z,12.777777777777779
2023-10-20T01:17:23.000Z,12.777777777777779
2023-10-20T01:17:43.000Z,12.777777777777779
2023-10-20T01:18:13.000Z,12.777777777777779
2023-10-20T01:18:43.000Z,12.777777777777779
2023-10-20T01:19:03.000Z,12.777777777777779
2023-10-20T01:19:33.000Z,12.777777777777779
2023-10-20T01:19:55.000Z,12.777777777777779
2023-10-20T01:20:24.000Z,12.777777777777779
2023-10-20T01:20:53.000Z,12.777777777777779
2023-10-20T01:21:23.000Z,12.777777777777779
2023-10-20T01:22:08.000Z,12.777777777777779
2023-10-20T01:22:31.000Z,12.777777777777779
2023-10-20T01:22:58.000Z,12.777777777777779
2023-10-20T01:23:21.000Z,12.777777777777779
2023-10-20T01:23:48.000Z,12.777777777777779
2023-10-20T01:24:23.000Z,12.722222222222221
2023-10-20T01:25:03.000Z,12.722222222222221
2023-10-20T01:25:26.000Z,12.777777777777779
2023-10-20T01:25:53.000Z,12.777777777777779
2023-10-20T01:26:23.000Z,12.777777777777779
2023-10-20T01:26:53.000Z,12.777777777777779
2023-10-20T01:27:19.000Z,12.777777777777779
2023-10-20T01:27:47.000Z,12.777777777777779
2023-10-20T01:28:13.000Z,12.888888888888891
2023-10-20T01:28:39.000Z,12.777777777777779
2023-10-20T01:29:03.000Z,12.777777777777779
2023-10-20T01:29:26.000Z,12.777777777777779
2023-10-20T01:29:58.000Z,12.777777777777779
2023-10-20T01:30:28.000Z,12.777777777777779
2023-10-20T01:30:53.000Z,12.777777777777779
2023-10-20T01:31:18.000Z,12.777777777777779
2023-10-20T01:31:48.000Z,12.777777777777779
2023-10-20T01:32:23.000Z,12.777777777777779
2023-10-20T01:32:53.000Z,12.777777777777779
2023-10-20T01:33:23.000Z,12.777777777777779
2023-10-20T01:33:58.000Z,12.777777777777779
2023-10-20T01:34:28.000Z,12.777777777777779
2023-10-20T01:34:53.000Z,12.777777777777779
2023-10-20T01:35:19.000Z,12.777777777777779
2023-10-20T01:35:47.000Z,12.777777777777779
2023-10-20T01:36:23.000Z,12.777777777777779
2023-10-20T01:36:53.000Z,12.777777777777779
2023-10-20T01:37:23.000Z,12.777777777777779
2023-10-20T01:37:58.000Z,12.777777777777779
2023-10-20T01:38:28.000Z,12.777777777777779
2023-10-20T01:38:53.000Z,12.777777777777779
2023-10-20T01:39:18.000Z,12.777777777777779
2023-10-20T01:39:48.000Z,12.777777777777779
2023-10-20T01:40:23.000Z,12.777777777777779
2023-10-20T01:40:53.000Z,12.777777777777779
2023-10-20T01:41:33.000Z,12.777777777777779
2023-10-20T01:41:59.000Z,12.777777777777779
2023-10-20T01:42:30.000Z,12.777777777777779
2023-10-20T01:42:53.000Z,12.777777777777779
2023-10-20T01:43:19.000Z,12.777777777777779
2023-10-20T01:43:47.000Z,12.777777777777779
2023-10-20T01:44:13.000Z,12.777777777777779
2023-10-20T01:44:39.000Z,12.777777777777779
2023-10-20T01:45:07.000Z,12.777777777777779
2023-10-20T01:45:23.000Z,12.777777777777779
2023-10-20T01:45:58.000Z,12.777777777777779
2023-10-20T01:46:28.000Z,12.777777777777779
2023-10-20T01:46:56.000Z,12.777777777777779
2023-10-20T01:47:18.000Z,12.777777777777779
2023-10-20T01:47:48.000Z,12.777777777777779
2023-10-20T01:48:23.000Z,12.777777777777779
2023-10-20T01:48:53.000Z,12.777777777777779
2023-10-20T01:49:23.000Z,12.777777777777779
2023-10-20T01:49:43.000Z,12.777777777777779
2023-10-20T01:50:14.000Z,12.777777777777779
2023-10-20T01:50:58.000Z,12.777777777777779
2023-10-20T01:51:21.000Z,12.777777777777779
2023-10-20T01:51:48.000Z,12.777777777777779
2023-10-20T01:52:23.000Z,12.777777777777779
2023-10-20T01:52:53.000Z,12.777777777777779
2023-10-20T01:53:23.000Z,12.777777777777779
2023-10-20T01:53:43.000Z,12.777777777777779
2023-10-20T01:54:13.000Z,12.777777777777779
2023-10-20T01:54:43.000Z,12.777777777777779
2023-10-20T01:55:03.000Z,12.777777777777779
2023-10-20T01:55:33.000Z,12.777777777777779
2023-10-20T01:55:55.000Z,12.777777777777779
2023-10-20T01:56:25.000Z,12.777777777777779
2023-10-20T01:56:51.000Z,12.777777777777779
2023-10-20T01:57:14.000Z,12.777777777777779
2023-10-20T01:57:43.000Z,12.777777777777779
2023-10-20T01:58:08.000Z,12.777777777777779
2023-10-20T01:58:31.000Z,12.777777777777779
2023-10-20T01:58:58.000Z,12.777777777777779
2023-10-20T01:59:21.000Z,12.777777777777779
2023-10-20T01:59:48.000Z,12.777777777777779
2023-10-20T02:00:23.000Z,12.777777777777779
2023-10-20T02:01:03.000Z,12.777777777777779
2023-10-20T02:01:26.000Z,12.777777777777779
2023-10-20T02:01:53.000Z,12.777777777777779
2023-10-20T02:02:23.000Z,12.777777777777779
2023-10-20T02:02:53.000Z,12.722222222222221
2023-10-20T02:03:19.000Z,12.722222222222221
2023-10-20T02:03:48.000Z,12.722222222222221
2023-10-20T02:04:23.000Z,12.722222222222221
2023-10-20T02:04:53.000Z,12.722222222222221
2023-10-20T02:05:23.000Z,12.722222222222221
2023-10-20T02:05:43.000Z,12.722222222222221
2023-10-20T02:06:13.000Z,12.722222222222221
2023-10-20T02:06:43.000Z,12.722222222222221
2023-10-20T02:07:18.000Z,12.722222222222221
2023-10-20T02:07:48.000Z,12.722222222222221
2023-10-20T02:08:23.000Z,12.722222222222221
2023-10-20T02:09:03.000Z,12.722222222222221
2023-10-20T02:09:26.000Z,12.777777777777779
2023-10-20T02:09:53.000Z,12.722222222222221
2023-10-20T02:10:23.000Z,12.777777777777779
2023-10-20T02:10:53.000Z,12.722222222222221
2023-10-20T02:11:19.000Z,12.888888888888891
2023-10-20T02:11:47.000Z,12.888888888888891
2023-10-20T02:12:13.000Z,12.777777777777779
2023-10-20T02:12:39.000Z,12.777777777777779
2023-10-20T02:13:03.000Z,12.777777777777779
2023-10-20T02:13:26.000Z,12.777777777777779
2023-10-20T02:13:53.000Z,12.888888888888891
2023-10-20T02:14:23.000Z,12.888888888888891
2023-10-20T02:14:53.000Z,12.777777777777779
2023-10-20T02:15:19.000Z,12.777777777777779
2023-10-20T02:15:47.000Z,12.888888888888891
2023-10-20T02:16:13.000Z,12.888888888888891
2023-10-20T02:16:38.000Z,12.777777777777779
2023-10-20T02:16:54.000Z,12.777777777777779
2023-10-20T02:17:23.000Z,12.777777777777779
2023-10-20T02:17:43.000Z,12.777777777777779
2023-10-20T02:18:13.000Z,12.777777777777779
2023-10-20T02:18:43.000Z,12.777777777777779
2023-10-20T02:19:03.000Z,12.777777777777779
2023-10-20T02:19:33.000Z,12.777777777777779
2023-10-20T02:19:55.000Z,12.777777777777779
2023-10-20T02:20:23.000Z,12.777777777777779
2023-10-20T02:20:53.000Z,12.777777777777779
2023-10-20T02:21:23.000Z,12.777777777777779
2023-10-20T02:21:43.000Z,12.777777777777779
2023-10-20T02:22:08.000Z,12.777777777777779
2023-10-20T02:22:28.000Z,12.777777777777779
2023-10-20T02:22:53.000Z,12.777777777777779
2023-10-20T02:23:18.000Z,12.777777777777779
2023-10-20T02:23:48.000Z,12.777777777777779
2023-10-20T02:24:23.000Z,12.777777777777779
2023-10-20T02:24:53.000Z,12.777777777777779
2023-10-20T02:25:23.000Z,12.777777777777779
2023-10-20T02:25:43.000Z,12.777777777777779
2023-10-20T02:26:13.000Z,12.777777777777779
2023-10-20T02:26:43.000Z,12.777777777777779
2023-10-20T02:27:03.000Z,12.777777777777779
2023-10-20T02:27:43.000Z,12.777777777777779
2023-10-20T02:28:13.000Z,12.888888888888891
2023-10-20T02:28:40.000Z,12.888888888888891
2023-10-20T02:29:03.000Z,12.888888888888891
2023-10-20T02:29:26.000Z,12.888888888888891
2023-10-20T02:29:53.000Z,12.888888888888891
2023-10-20T02:30:23.000Z,12.888888888888891
2023-10-20T02:30:53.000Z,12.888888888888891
2023-10-20T02:31:19.000Z,12.888888888888891
2023-10-20T02:31:47.000Z,12.888888888888891
2023-10-20T02:32:03.000Z,12.888888888888891
2023-10-20T02:32:23.000Z,12.888888888888891
2023-10-20T02:32:53.000Z,12.888888888888891
2023-10-20T02:33:23.000Z,12.888888888888891
2023-10-20T02:33:43.000Z,12.888888888888891
2023-10-20T02:34:13.000Z,12.888888888888891
2023-10-20T02:34:43.000Z,12.888888888888891
2023-10-20T02:35:03.000Z,12.888888888888891
2023-10-20T02:35:33.000Z,12.888888888888891
2023-10-20T02:35:55.000Z,12.888888888888891
2023-10-20T02:36:23.000Z,12.888888888888891
2023-10-20T02:37:03.000Z,12.888888888888891
2023-10-20T02:37:26.000Z,12.888888888888891
2023-10-20T02:37:58.000Z,12.888888888888891
2023-10-20T02:38:28.000Z,12.888888888888891
2023-10-20T02:39:03.000Z,12.888888888888891
2023-10-20T02:39:33.000Z,12.888888888888891
2023-10-20T02:39:55.000Z,12.888888888888891
2023-10-20T02:40:23.000Z,12.888888888888891
2023-10-20T02:40:53.000Z,12.888888888888891
2023-10-20T02:41:23.000Z,12.888888888888891
2023-10-20T02:41:58.000Z,12.888888888888891
2023-10-20T02:42:38.000Z,12.888888888888891
2023-10-20T02:43:04.000Z,12.888888888888891
2023-10-20T02:43:31.000Z,12.888888888888891
2023-10-20T02:43:58.000Z,12.888888888888891
2023-10-20T02:44:23.000Z,12.888888888888891
2023-10-20T02:44:53.000Z,12.888888888888891
2023-10-20T02:45:23.000Z,12.777777777777779
2023-10-20T02:45:58.000Z,12.777777777777779
2023-10-20T02:46:28.000Z,12.777777777777779
2023-10-20T02:46:54.000Z,12.777777777777779
2023-10-20T02:47:18.000Z,12.777777777777779
2023-10-20T02:47:48.000Z,12.777777777777779
2023-10-20T02:48:23.000Z,12.777777777777779
2023-10-20T02:48:53.000Z,12.777777777777779
2023-10-20T02:49:23.000Z,12.777777777777779
2023-10-20T02:49:53.000Z,12.777777777777779
2023-10-20T02:50:23.000Z,12.777777777777779
2023-10-20T02:50:43.000Z,12.777777777777779
2023-10-20T02:51:18.000Z,12.777777777777779
2023-10-20T02:51:48.000Z,12.777777777777779
2023-10-20T02:52:23.000Z,12.777777777777779
2023-10-20T02:52:53.000Z,12.777777777777779
2023-10-20T02:53:23.000Z,12.777777777777779
2023-10-20T02:53:58.000Z,12.777777777777779
2023-10-20T02:54:28.000Z,12.777777777777779
2023-10-20T02:55:01.000Z,12.777777777777779
2023-10-20T02:55:34.000Z,12.777777777777779
2023-10-20T02:55:58.000Z,12.777777777777779
2023-10-20T02:56:23.000Z,12.777777777777779
2023-10-20T02:56:51.000Z,12.777777777777779
2023-10-20T02:57:14.000Z,12.777777777777779
2023-10-20T02:57:39.000Z,12.777777777777779
2023-10-20T02:58:08.000Z,12.777777777777779
2023-10-20T02:58:31.000Z,12.777777777777779
2023-10-20T02:58:58.000Z,12.777777777777779
2023-10-20T02:59:21.000Z,12.777777777777779
2023-10-20T02:59:48.000Z,12.777777777777779
2023-10-20T03:00:23.000Z,12.777777777777779
2023-10-20T03:01:03.000Z,12.777777777777779
2023-10-20T03:01:26.000Z,12.777777777777779
2023-10-20T03:01:53.000Z,12.777777777777779
2023-10-20T03:02:23.000Z,12.888888888888891
2023-10-20T03:02:53.000Z,12.777777777777779
2023-10-20T03:03:19.000Z,12.777777777777779
2023-10-20T03:03:48.000Z,12.777777777777779
2023-10-20T03:04:24.000Z,12.888888888888891
2023-10-20T03:04:53.000Z,12.888888888888891
2023-10-20T03:05:23.000Z,12.888888888888891
2023-10-20T03:05:58.000Z,12.888888888888891
2023-10-20T03:06:28.000Z,12.888888888888891
2023-10-20T03:07:01.000Z,12.888888888888891
2023-10-20T03:07:33.000Z,12.888888888888891
2023-10-20T03:07:55.000Z,12.888888888888891
2023-10-20T03:08:33.000Z,12.888888888888891
2023-10-20T03:09:03.000Z,13.0
2023-10-20T03:09:26.000Z,13.0
2023-10-20T03:09:53.000Z,13.0
2023-10-20T03:10:23.000Z,13.0
2023-10-20T03:10:43.000Z,13.0
2023-10-20T03:11:03.000Z,13.0
2023-10-20T03:11:33.000Z,13.0
2023-10-20T03:11:55.000Z,13.0
2023-10-20T03:12:23.000Z,13.0
2023-10-20T03:12:54.000Z,13.0
2023-10-20T03:13:23.000Z,13.0
2023-10-20T03:13:43.000Z,13.0
2023-10-20T03:14:13.000Z,13.0
2023-10-20T03:14:43.000Z,13.0
2023-10-20T03:15:18.000Z,13.0
2023-10-20T03:15:58.000Z,13.0
2023-10-20T03:16:23.000Z,13.0
2023-10-20T03:16:51.000Z,13.0
2023-10-20T03:17:14.000Z,13.0
2023-10-20T03:17:43.000Z,13.0
2023-10-20T03:18:08.000Z,13.0
2023-10-20T03:18:31.000Z,13.0
2023-10-20T03:18:55.000Z,13.0
2023-10-20T03:19:18.000Z,13.0
2023-10-20T03:19:48.000Z,13.0
2023-10-20T03:20:23.000Z,13.0
2023-10-20T03:20:53.000Z,13.0
2023-10-20T03:21:23.000Z,13.0
2023-10-20T03:21:43.000Z,13.0
2023-10-20T03:22:13.000Z,13.0
2023-10-20T03:22:43.000Z,13.0
2023-10-20T03:23:18.000Z,13.0
2023-10-20T03:23:48.000Z,13.0
2023-10-20T03:24:23.000Z,13.0
2023-10-20T03:24:53.000Z,13.0
2023-10-20T03:25:23.000Z,13.0
2023-10-20T03:25:43.000Z,13.0
2023-10-20T03:26:12.000Z,13.0
2023-10-20T03:26:43.000Z,13.0
2023-10-20T03:27:18.000Z,13.0
2023-10-20T03:27:48.000Z,13.0
2023-10-20T03:28:23.000Z,13.0
2023-10-20T03:28:53.000Z,13.0
2023-10-20T03:29:23.000Z,13.0
2023-10-20T03:29:58.000Z,13.0
2023-10-20T03:30:28.000Z,13.0
2023-10-20T03:30:54.000Z,13.0
2023-10-20T03:31:18.000Z,13.0
2023-10-20T03:31:48.000Z,13.0
2023-10-20T03:32:23.000Z,13.0
2023-10-20T03:32:53.000Z,13.0
2023-10-20T03:33:23.000Z,13.0
2023-10-20T03:33:43.000Z,13.0
2023-10-20T03:34:12.000Z,13.0
2023-10-20T03:34:43.000Z,13.0
2023-10-20T03:35:13.000Z,13.0
2023-10-20T03:35:43.000Z,13.0
2023-10-20T03:36:13.000Z,13.0
2023-10-20T03:36:38.000Z,13.0
2023-10-20T03:37:07.000Z,13.0
2023-10-20T03:37:23.000Z,13.0
2023-10-20T03:37:43.000Z,13.0
2023-10-20T03:38:12.000Z,13.0
2023-10-20T03:38:43.000Z,13.0
2023-10-20T03:39:18.000Z,13.11111111111111
2023-10-20T03:39:48.000Z,13.11111111111111
2023-10-20T03:40:23.000Z,13.11111111111111
2023-10-20T03:40:53.000Z,13.11111111111111
2023-10-20T03:41:23.000Z,13.11111111111111
2023-10-20T03:42:08.000Z,13.11111111111111
2023-10-20T03:42:31.000Z,13.11111111111111
2023-10-20T03:42:58.000Z,13.11111111111111
2023-10-20T03:43:18.000Z,13.11111111111111
2023-10-20T03:43:48.000Z,13.11111111111111
2023-10-20T03:44:23.000Z,13.11111111111111
2023-10-20T03:44:53.000Z,13.11111111111111
2023-10-20T03:45:23.000Z,13.11111111111111
2023-10-20T03:45:43.000Z,13.11111111111111
2023-10-20T03:46:13.000Z,13.11111111111111
2023-10-20T03:46:43.000Z,13.11111111111111
2023-10-20T03:47:03.000Z,13.11111111111111
2023-10-20T03:47:33.000Z,13.11111111111111
2023-10-20T03:48:04.000Z,13.11111111111111
2023-10-20T03:48:35.000Z,13.11111111111111
2023-10-20T03:49:03.000Z,13.11111111111111
2023-10-20T03:49:26.000Z,13.11111111111111
2023-10-20T03:49:53.000Z,13.11111111111111
2023-10-20T03:50:23.000Z,13.11111111111111
2023-10-20T03:50:53.000Z,13.11111111111111
2023-10-20T03:51:19.000Z,13.11111111111111
2023-10-20T03:51:47.000Z,13.11111111111111
2023-10-20T03:52:17.000Z,13.11111111111111
2023-10-20T03:52:48.000Z,13.11111111111111
2023-10-20T03:53:14.000Z,13.222222222222221
2023-10-20T03:53:43.000Z,13.222222222222221
2023-10-20T03:54:08.000Z,13.222222222222221
2023-10-20T03:54:31.000Z,13.222222222222221
2023-10-20T03:54:58.000Z,13.222222222222221
2023-10-20T03:55:21.000Z,13.222222222222221
2023-10-20T03:55:48.000Z,13.222222222222221
2023-10-20T03:56:23.000Z,13.222222222222221
2023-10-20T03:56:53.000Z,13.222222222222221
2023-10-20T03:57:23.000Z,13.222222222222221
2023-10-20T03:57:43.000Z,13.222222222222221
2023-10-20T03:58:13.000Z,13.222222222222221
2023-10-20T03:58:43.000Z,13.222222222222221
2023-10-20T03:59:03.000Z,13.222222222222221
2023-10-20T03:59:33.000Z,13.222222222222221
2023-10-20T03:59:55.000Z,13.222222222222221
2023-10-20T04:00:23.000Z,13.222222222222221
2023-10-20T04:00:53.000Z,13.222222222222221
2023-10-20T04:01:33.000Z,13.222222222222221
2023-10-20T04:01:59.000Z,13.222222222222221
2023-10-20T04:02:30.000Z,13.222222222222221
2023-10-20T04:02:55.000Z,13.222222222222221
2023-10-20T04:03:18.000Z,13.222222222222221
2023-10-20T04:03:48.000Z,13.222222222222221
2023-10-20T04:04:23.000Z,13.222222222222221
2023-10-20T04:04:53.000Z,13.222222222222221
2023-10-20T04:05:23.000Z,13.222222222222221
2023-10-20T04:05:43.000Z,13.222222222222221
2023-10-20T04:06:13.000Z,13.222222222222221
2023-10-20T04:06:43.000Z,13.222222222222221
2023-10-20T04:07:03.000Z,13.222222222222221
2023-10-20T04:07:33.000Z,13.222222222222221
2023-10-20T04:07:56.000Z,13.222222222222221
2023-10-20T04:08:23.000Z,13.222222222222221
2023-10-20T04:09:03.000Z,13.222222222222221
2023-10-20T04:09:23.000Z,13.222222222222221
2023-10-20T04:09:58.000Z,13.222222222222221
2023-10-20T04:10:28.000Z,13.222222222222221
2023-10-20T04:10:53.000Z,13.222222222222221
2023-10-20T04:11:18.000Z,13.222222222222221
2023-10-20T04:11:48.000Z,13.222222222222221
2023-10-20T04:12:23.000Z,13.222222222222221
2023-10-20T04:12:53.000Z,13.222222222222221
2023-10-20T04:13:23.000Z,13.222222222222221
2023-10-20T04:13:58.000Z,13.222222222222221
2023-10-20T04:14:29.000Z,13.222222222222221
2023-10-20T04:14:53.000Z,13.222222222222221
2023-10-20T04:15:19.000Z,13.222222222222221
2023-10-20T04:15:47.000Z,13.222222222222221
2023-10-20T04:16:03.000Z,13.222222222222221
2023-10-20T04:16:38.000Z,13.222222222222221
2023-10-20T04:17:07.000Z,13.222222222222221
2023-10-20T04:17:23.000Z,13.222222222222221
2023-10-20T04:17:58.000Z,13.222222222222221
2023-10-20T04:18:28.000Z,13.222222222222221
2023-10-20T04:19:01.000Z,13.222222222222221
2023-10-20T04:19:33.000Z,13.222222222222221
2023-10-20T04:19:55.000Z,13.222222222222221
2023-10-20T04:20:23.000Z,13.222222222222221
2023-10-20T04:21:03.000Z,13.222222222222221
2023-10-20T04:21:26.000Z,13.222222222222221
2023-10-20T04:21:53.000Z,13.222222222222221
2023-10-20T04:22:23.000Z,13.222222222222221
2023-10-20T04:22:53.000Z,13.222222222222221
2023-10-20T04:23:19.000Z,13.222222222222221
2023-10-20T04:23:47.000Z,13.222222222222221
2023-10-20T04:24:23.000Z,13.222222222222221
2023-10-20T04:24:53.000Z,13.222222222222221
2023-10-20T04:25:23.000Z,13.222222222222221
2023-10-20T04:25:58.000Z,13.222222222222221
2023-10-20T04:26:29.000Z,13.222222222222221
2023-10-20T04:26:53.000Z,13.222222222222221
2023-10-20T04:27:18.000Z,13.222222222222221
2023-10-20T04:27:48.000Z,13.222222222222221
2023-10-20T04:28:23.000Z,13.11111111111111
2023-10-20T04:28:53.000Z,13.11111111111111
2023-10-20T04:29:33.000Z,13.11111111111111
2023-10-20T04:29:59.000Z,13.11111111111111
2023-10-20T04:30:30.000Z,13.11111111111111
2023-10-20T04:30:53.000Z,13.222222222222221
2023-10-20T04:31:19.000Z,13.222222222222221
2023-10-20T04:31:47.000Z,13.222222222222221
2023-10-20T04:32:13.000Z,13.222222222222221
2023-10-20T04:32:39.000Z,13.222222222222221
2023-10-20T04:33:03.000Z,13.277777777777779
2023-10-20T04:33:26.000Z,13.277777777777779
2023-10-20T04:33:53.000Z,13.277777777777779
2023-10-20T04:34:13.000Z,13.277777777777779
2023-10-20T04:34:43.000Z,13.277777777777779
2023-10-20T04:35:18.000Z,13.277777777777779
2023-10-20T04:35:48.000Z,13.222222222222221
2023-10-20T04:36:23.000Z,13.222222222222221
2023-10-20T04:36:53.000Z,13.222222222222221
2023-10-20T04:37:23.000Z,13.222222222222221
2023-10-20T04:37:58.000Z,13.222222222222221
2023-10-20T04:38:28.000Z,13.222222222222221
2023-10-20T04:38:53.000Z,13.222222222222221
2023-10-20T04:39:19.000Z,13.222222222222221
2023-10-20T04:39:47.000Z,13.222222222222221
2023-10-20T04:40:13.000Z,13.222222222222221
2023-10-20T04:40:39.000Z,13.222222222222221
2023-10-20T04:41:03.000Z,13.222222222222221
2023-10-20T04:41:26.000Z,13.222222222222221
2023-10-20T04:41:53.000Z,13.222222222222221
2023-10-20T04:42:23.000Z,13.222222222222221
2023-10-20T04:42:53.000Z,13.222222222222221
2023-10-20T04:43:19.000Z,13.222222222222221
2023-10-20T04:43:47.000Z,13.222222222222221
2023-10-20T04:44:13.000Z,13.222222222222221